createdAt,value
2022-12-28T00:00:03.086Z,2.80
2022-12-28T00:02:42.540Z,2.58
2022-12-28T00:05:11.526Z,3.30
2022-12-28T00:07:40.168Z,2.92
2022-12-28T00:10:09.307Z,3.20
2022-12-28T00:12:38.419Z,2.80
2022-12-28T00:15:07.797Z,2.95
2022-12-28T00:17:36.919Z,3.22
2022-12-28T00:20:08.333Z,3.03
2022-12-28T00:22:37.045Z,3.30
2022-12-28T00:25:06.798Z,3.50
2022-12-28T00:27:35.736Z,3.55
2022-12-28T00:30:04.547Z,3.28
2022-12-28T00:32:33.231Z,3.55
2022-12-28T00:35:01.978Z,3.20
2022-12-28T00:37:33.302Z,3.50
2022-12-28T00:40:01.694Z,3.13
2022-12-28T00:42:31.534Z,3.33
2022-12-28T00:45:02.914Z,3.53
2022-12-28T00:47:31.905Z,3.55
2022-12-28T00:50:01.108Z,3.53
2022-12-28T00:52:32.654Z,3.95
2022-12-28T00:55:02.221Z,4.70
2022-12-28T00:57:34.102Z,4.07
2022-12-28T01:00:03.853Z,3.55
2022-12-28T01:02:33.697Z,3.72
2022-12-28T01:07:38.706Z,3.30
2022-12-28T01:10:15.282Z,2.80
2022-12-28T01:12:46.079Z,4.35
2022-12-28T01:15:15.915Z,4.03
2022-12-28T01:17:44.823Z,3.38
2022-12-28T01:20:13.502Z,3.55
2022-12-28T01:23:00.560Z,3.60
2022-12-28T01:25:29.486Z,3.78
2022-12-28T01:28:10.206Z,3.95
2022-12-28T01:30:53.620Z,3.80
2022-12-28T01:33:52.407Z,3.45
2022-12-28T01:36:25.117Z,3.45
2022-12-28T01:38:58.954Z,3.15
2022-12-28T01:41:34.237Z,3.85
2022-12-28T01:44:41.748Z,3.22
2022-12-28T01:47:24.555Z,3.65
2022-12-28T01:50:02.393Z,3.40
2022-12-28T01:52:40.259Z,3.20
2022-12-28T01:55:15.448Z,3.53
2022-12-28T01:57:50.192Z,3.53
2022-12-28T02:00:21.270Z,3.85
2022-12-28T02:02:54.095Z,3.80
2022-12-28T02:05:28.528Z,3.33
2022-12-28T02:08:05.144Z,3.45
2022-12-28T02:10:42.295Z,3.38
2022-12-28T02:13:17.380Z,3.75
2022-12-28T02:15:49.009Z,3.20
2022-12-28T02:18:21.626Z,3.67
2022-12-28T02:21:37.806Z,3.60
2022-12-28T02:24:46.506Z,3.70
2022-12-28T02:27:30.583Z,3.20
2022-12-28T02:30:08.795Z,3.13
2022-12-28T02:32:57.716Z,3.63
2022-12-28T02:35:36.317Z,3.30
2022-12-28T02:38:11.870Z,3.42
2022-12-28T02:40:45.212Z,3.50
2022-12-28T02:43:15.618Z,3.13
2022-12-28T02:46:05.394Z,3.25
2022-12-28T02:48:59.192Z,3.00
2022-12-28T02:51:44.025Z,3.55
2022-12-28T02:54:59.243Z,3.67
2022-12-28T02:57:46.770Z,3.40
2022-12-28T03:00:19.036Z,3.78
2022-12-28T03:03:16.389Z,3.22
2022-12-28T03:06:19.292Z,4.05
2022-12-28T03:08:58.088Z,3.47
2022-12-28T03:11:39.376Z,3.47
2022-12-28T03:14:12.223Z,3.72
2022-12-28T03:17:02.503Z,3.83
2022-12-28T03:19:56.081Z,3.95
2022-12-28T03:22:54.715Z,4.07
2022-12-28T03:25:49.329Z,2.38
2022-12-28T03:28:44.178Z,3.60
2022-12-28T03:31:21.187Z,3.80
2022-12-28T03:34:07.247Z,2.92
2022-12-28T03:36:57.601Z,4.18
2022-12-28T03:39:36.675Z,4.07
2022-12-28T03:42:31.178Z,3.97
2022-12-28T03:45:07.671Z,4.25
2022-12-28T03:47:41.862Z,4.10
2022-12-28T03:50:13.849Z,4.13
2022-12-28T03:52:45.476Z,4.38
2022-12-28T03:55:16.369Z,4.18
2022-12-28T03:57:46.924Z,4.30
2022-12-28T04:00:32.233Z,4.60
2022-12-28T04:06:18.098Z,4.45
2022-12-28T04:08:49.106Z,4.85
2022-12-28T04:11:18.342Z,4.20
2022-12-28T04:13:51.728Z,4.15
2022-12-28T04:16:21.495Z,4.18
2022-12-28T04:18:51.259Z,4.18
2022-12-28T04:21:21.843Z,4.15
2022-12-28T04:23:52.027Z,4.55
2022-12-28T04:26:24.581Z,4.40
2022-12-28T04:28:58.130Z,4.65
2022-12-28T04:31:34.070Z,4.55
2022-12-28T04:34:14.042Z,4.72
2022-12-28T04:36:48.707Z,4.60
2022-12-28T04:41:50.480Z,4.20
2022-12-28T04:44:19.197Z,4.22
2022-12-28T04:46:47.656Z,4.65
2022-12-28T04:49:16.222Z,4.22
2022-12-28T04:51:45.011Z,4.97
2022-12-28T04:54:15.943Z,5.20
2022-12-28T04:56:45.959Z,4.25
2022-12-28T04:59:14.628Z,4.32
2022-12-28T05:01:43.330Z,4.90
2022-12-28T05:04:12.074Z,4.93
2022-12-28T05:06:40.591Z,4.63
2022-12-28T05:09:09.193Z,4.47
2022-12-28T05:11:38.114Z,4.43
2022-12-28T05:14:08.335Z,5.03
2022-12-28T05:16:37.188Z,4.80
2022-12-28T05:19:05.921Z,5.25
2022-12-28T05:21:34.953Z,4.57
2022-12-28T05:24:04.793Z,4.97
2022-12-28T05:26:33.277Z,4.80
2022-12-28T05:29:02.235Z,5.07
2022-12-28T05:31:32.690Z,5.38
2022-12-28T05:34:01.924Z,5.60
2022-12-28T05:36:30.385Z,4.90
2022-12-28T05:38:58.989Z,4.53
2022-12-28T05:41:29.513Z,4.82
2022-12-28T05:43:59.345Z,5.55
2022-12-28T05:46:30.982Z,8.15
2022-12-28T05:49:01.352Z,9.57
2022-12-28T05:51:31.654Z,11.65
2022-12-28T05:54:01.627Z,9.30
2022-12-28T05:56:31.177Z,14.57
2022-12-28T05:59:02.704Z,10.15
2022-12-28T06:01:34.192Z,7.00
2022-12-28T06:04:06.648Z,6.75
2022-12-28T06:06:36.411Z,5.78
2022-12-28T06:09:05.570Z,5.70
2022-12-28T06:11:34.055Z,6.30
2022-12-28T06:14:04.034Z,6.28
2022-12-28T06:16:34.676Z,5.50
2022-12-28T06:19:08.616Z,5.57
2022-12-28T06:21:38.521Z,5.95
2022-12-28T06:24:09.001Z,5.75
2022-12-28T06:26:39.545Z,6.00
2022-12-28T06:29:08.685Z,5.65
2022-12-28T06:31:39.751Z,5.93
2022-12-28T06:34:11.082Z,5.57
2022-12-28T06:36:41.734Z,5.85
2022-12-28T06:39:14.819Z,7.40
2022-12-28T06:41:44.012Z,7.25
2022-12-28T06:44:15.653Z,6.78
2022-12-28T06:46:44.355Z,6.70
2022-12-28T06:49:14.434Z,6.22
2022-12-28T06:51:42.944Z,7.25
2022-12-28T06:54:12.470Z,7.55
2022-12-28T06:56:41.686Z,6.20
2022-12-28T06:59:10.166Z,7.15
2022-12-28T07:01:41.256Z,6.70
2022-12-28T07:04:11.994Z,7.43
2022-12-28T07:06:43.930Z,6.82
2022-12-28T07:09:15.664Z,6.57
2022-12-28T07:11:44.642Z,7.55
2022-12-28T07:14:13.665Z,7.60
2022-12-28T07:16:42.913Z,8.30
2022-12-28T07:19:11.465Z,8.30
2022-12-28T07:21:42.651Z,7.57
2022-12-28T07:24:11.881Z,8.25
2022-12-28T07:26:40.505Z,7.93
2022-12-28T07:29:10.109Z,7.15
2022-12-28T07:31:45.238Z,7.07
2022-12-28T07:34:16.449Z,7.63
2022-12-28T07:36:46.896Z,7.32
2022-12-28T07:39:15.538Z,8.00
2022-12-28T07:41:44.119Z,7.20
2022-12-28T07:44:13.244Z,7.47
2022-12-28T07:46:41.722Z,7.18
2022-12-28T07:49:10.407Z,8.10
2022-12-28T07:51:39.947Z,7.55
2022-12-28T07:54:10.152Z,7.32
2022-12-28T07:59:07.642Z,7.50
2022-12-28T08:01:37.721Z,7.30
2022-12-28T08:04:09.390Z,7.55
2022-12-28T08:06:40.628Z,7.18
2022-12-28T08:09:12.515Z,7.03
2022-12-28T08:14:11.260Z,7.10
2022-12-28T08:16:41.140Z,7.00
2022-12-28T08:19:10.820Z,8.48
2022-12-28T08:21:41.437Z,7.28
2022-12-28T08:24:15.554Z,6.85
2022-12-28T08:26:44.950Z,8.13
2022-12-28T08:29:19.311Z,8.40
2022-12-28T08:31:48.516Z,6.97
2022-12-28T08:34:19.038Z,7.75
2022-12-28T08:36:48.105Z,6.90
2022-12-28T08:39:18.040Z,8.15
2022-12-28T08:41:46.874Z,7.28
2022-12-28T08:44:15.498Z,7.55
2022-12-28T08:46:44.201Z,7.63
2022-12-28T08:49:15.813Z,7.97
2022-12-28T08:51:44.567Z,7.47
2022-12-28T08:54:14.979Z,8.00
2022-12-28T08:56:47.171Z,7.43
2022-12-28T08:59:18.146Z,7.97
2022-12-28T09:01:48.106Z,8.68
2022-12-28T09:04:18.660Z,8.38
2022-12-28T09:06:47.610Z,8.43
2022-12-28T09:09:19.546Z,8.48
2022-12-28T09:11:50.475Z,7.50
2022-12-28T09:14:23.606Z,8.13
2022-12-28T09:16:54.543Z,7.93
2022-12-28T09:19:23.786Z,7.78
2022-12-28T09:21:55.548Z,7.55
2022-12-28T09:24:24.881Z,7.00
2022-12-28T09:26:55.623Z,7.47
2022-12-28T09:29:24.425Z,7.82
2022-12-28T09:31:53.236Z,7.57
2022-12-28T09:34:38.316Z,6.93
2022-12-28T09:37:08.689Z,7.43
2022-12-28T09:39:37.685Z,7.55
2022-12-28T09:42:13.982Z,7.40
2022-12-28T09:44:59.700Z,7.97
2022-12-28T09:47:36.177Z,7.35
2022-12-28T09:50:30.072Z,7.03
2022-12-28T09:53:19.942Z,6.60
2022-12-28T09:55:56.449Z,6.65
2022-12-28T09:58:26.824Z,6.80
2022-12-28T10:00:58.799Z,6.20
2022-12-28T10:03:33.632Z,6.13
2022-12-28T10:06:03.427Z,6.53
2022-12-28T10:08:36.715Z,6.38
2022-12-28T10:11:06.904Z,6.30
2022-12-28T10:13:56.121Z,6.28
2022-12-28T10:16:26.723Z,6.55
2022-12-28T10:18:56.593Z,6.07
2022-12-28T10:21:32.689Z,5.97
2022-12-28T10:24:30.872Z,6.43
2022-12-28T10:26:57.080Z,5.47
2022-12-28T10:29:27.878Z,5.20
2022-12-28T10:32:02.294Z,5.40
2022-12-28T10:34:34.301Z,4.82
2022-12-28T10:37:14.800Z,5.57
2022-12-28T10:39:51.681Z,5.28
2022-12-28T10:42:27.399Z,6.55
2022-12-28T10:45:02.736Z,8.48
2022-12-28T10:47:36.576Z,11.60
2022-12-28T10:52:59.332Z,7.72
2022-12-28T10:55:31.023Z,11.27
2022-12-28T10:58:30.075Z,13.18
2022-12-28T11:01:08.656Z,36.55
2022-12-28T11:03:39.292Z,74.38
2022-12-28T11:06:18.786Z,69.07
2022-12-28T11:09:15.987Z,65.30
2022-12-28T11:11:46.706Z,67.95
2022-12-28T11:14:25.491Z,67.20
2022-12-28T11:17:18.049Z,70.47
2022-12-28T11:20:00.337Z,52.22
2022-12-28T11:22:40.863Z,49.92
2022-12-28T11:25:39.146Z,49.92
2022-12-28T11:28:14.598Z,36.50
2022-12-28T11:30:43.613Z,24.50
2022-12-28T11:33:29.720Z,15.55
2022-12-28T11:36:00.212Z,21.33
2022-12-28T11:38:40.183Z,23.95
2022-12-28T11:41:11.944Z,16.55
2022-12-28T11:43:51.099Z,12.52
2022-12-28T11:46:42.777Z,18.02
2022-12-28T11:49:28.693Z,11.15
2022-12-28T11:52:46.510Z,8.25
2022-12-28T11:55:37.346Z,7.75
2022-12-28T11:58:54.929Z,13.25
2022-12-28T12:01:44.568Z,11.82
2022-12-28T12:04:40.429Z,8.43
2022-12-28T12:07:50.375Z,9.95
2022-12-28T12:10:35.380Z,12.32
2022-12-28T12:13:44.396Z,12.07
2022-12-28T12:16:26.045Z,7.28
2022-12-28T12:18:57.635Z,4.80
2022-12-28T12:21:34.359Z,6.57
2022-12-28T12:24:14.776Z,7.10
2022-12-28T12:26:50.580Z,6.40
2022-12-28T12:29:24.122Z,8.70
2022-12-28T12:32:01.877Z,16.17
2022-12-28T12:34:40.434Z,9.13
2022-12-28T12:37:37.568Z,5.82
2022-12-28T12:40:40.451Z,4.78
2022-12-28T12:43:27.067Z,9.68
2022-12-28T12:46:01.644Z,7.38
2022-12-28T12:48:47.668Z,9.55
2022-12-28T12:51:26.935Z,11.90
2022-12-28T12:54:20.350Z,8.00
2022-12-28T12:56:55.453Z,9.60
2022-12-28T12:59:55.554Z,6.20
2022-12-28T13:02:45.370Z,6.15
2022-12-28T13:05:18.913Z,5.50
2022-12-28T13:07:47.951Z,5.05
2022-12-28T13:10:26.396Z,4.20
2022-12-28T13:12:58.587Z,5.05
2022-12-28T13:15:28.169Z,6.63
2022-12-28T13:20:58.498Z,5.00
2022-12-28T13:23:28.489Z,4.22
2022-12-28T13:26:01.241Z,4.65
2022-12-28T13:28:32.253Z,4.15
2022-12-28T13:31:08.135Z,4.28
2022-12-28T13:33:36.698Z,3.75
2022-12-28T13:36:19.599Z,3.60
2022-12-28T13:38:50.236Z,3.70
2022-12-28T13:41:26.207Z,3.72
2022-12-28T13:44:17.207Z,4.20
2022-12-28T13:46:50.471Z,4.63
2022-12-28T13:49:21.584Z,4.47
2022-12-28T13:51:53.723Z,4.32
2022-12-28T13:54:25.300Z,4.07
2022-12-28T13:57:14.731Z,3.75
2022-12-28T13:59:48.494Z,4.07
2022-12-28T14:02:20.991Z,4.10
2022-12-28T14:04:53.561Z,4.25
2022-12-28T14:07:26.111Z,3.60
2022-12-28T14:09:55.487Z,3.97
2022-12-28T14:12:26.568Z,4.75
2022-12-28T14:14:56.112Z,3.92
2022-12-28T14:17:26.446Z,5.18
2022-12-28T14:19:58.651Z,4.63
2022-12-28T14:22:32.797Z,4.20
2022-12-28T14:25:03.663Z,4.47
2022-12-28T14:27:37.406Z,4.17
2022-12-28T14:30:08.754Z,4.90
2022-12-28T14:32:42.879Z,4.85
2022-12-28T14:35:21.090Z,3.83
2022-12-28T14:37:54.076Z,4.45
2022-12-28T14:40:29.958Z,4.13
2022-12-28T14:43:04.134Z,4.03
2022-12-28T14:46:06.808Z,4.18
2022-12-28T14:48:40.899Z,4.32
2022-12-28T14:51:26.506Z,5.28
2022-12-28T14:54:23.128Z,4.15
2022-12-28T14:56:56.972Z,5.00
2022-12-28T14:59:31.701Z,5.00
2022-12-28T15:02:00.557Z,4.82
2022-12-28T15:04:37.904Z,4.38
2022-12-28T15:07:08.000Z,5.60
2022-12-28T15:09:36.885Z,5.55
2022-12-28T15:12:10.016Z,4.97
2022-12-28T15:14:40.821Z,5.07
2022-12-28T15:17:09.574Z,5.55
2022-12-28T15:19:38.372Z,5.60
2022-12-28T15:22:07.395Z,5.60
2022-12-28T15:24:36.173Z,5.43
2022-12-28T15:27:05.140Z,5.80
2022-12-28T15:32:24.246Z,6.65
2022-12-28T15:34:52.899Z,5.72
2022-12-28T15:37:21.435Z,5.60
2022-12-28T15:39:50.091Z,6.30
2022-12-28T15:42:18.923Z,6.40
2022-12-28T15:44:48.849Z,6.15
2022-12-28T15:47:17.736Z,5.60
2022-12-28T15:49:47.890Z,6.25
2022-12-28T15:52:16.612Z,6.85
2022-12-28T15:54:47.323Z,6.68
2022-12-28T15:57:16.239Z,8.00
2022-12-28T15:59:44.898Z,6.70
2022-12-28T16:02:15.246Z,7.47
2022-12-28T16:04:44.438Z,6.60
2022-12-28T16:07:14.524Z,6.82
2022-12-28T16:09:43.182Z,7.43
2022-12-28T16:12:17.359Z,7.43
2022-12-28T16:14:47.958Z,6.70
2022-12-28T16:17:16.659Z,7.60
2022-12-28T16:19:45.825Z,7.47
2022-12-28T16:22:15.853Z,8.57
2022-12-28T16:24:44.513Z,7.32
2022-12-28T16:27:13.368Z,7.63
2022-12-28T16:29:42.166Z,7.18
2022-12-28T16:32:10.919Z,7.43
2022-12-28T16:34:40.209Z,7.38
2022-12-28T16:37:10.417Z,7.78
2022-12-28T16:39:40.609Z,7.22
2022-12-28T16:42:09.187Z,7.13
2022-12-28T16:44:37.659Z,6.53
2022-12-28T16:47:06.971Z,6.63
2022-12-28T16:49:40.232Z,6.75
2022-12-28T16:52:08.809Z,7.40
2022-12-28T16:54:37.559Z,6.97
2022-12-28T16:57:07.590Z,6.43
2022-12-28T16:59:36.104Z,6.60
2022-12-28T17:02:05.870Z,6.78
2022-12-28T17:04:35.304Z,6.78
2022-12-28T17:07:03.989Z,6.57
2022-12-28T17:09:33.520Z,7.95
2022-12-28T17:12:02.365Z,7.05
2022-12-28T17:14:39.761Z,6.95
2022-12-28T17:17:08.839Z,7.75
2022-12-28T17:19:37.893Z,6.88
2022-12-28T17:22:07.054Z,6.85
2022-12-28T17:24:35.986Z,6.35
2022-12-28T17:27:08.495Z,7.53
2022-12-28T17:29:40.818Z,7.50
2022-12-28T17:32:11.491Z,8.20
2022-12-28T17:34:40.194Z,7.47
2022-12-28T17:37:08.980Z,7.10
2022-12-28T17:39:40.598Z,6.57
2022-12-28T17:42:09.931Z,6.65
2022-12-28T17:44:38.773Z,6.88
2022-12-28T17:47:09.887Z,7.10
2022-12-28T17:49:38.871Z,6.43
2022-12-28T17:52:07.900Z,6.13
2022-12-28T17:54:36.795Z,6.63
2022-12-28T17:57:05.645Z,7.43
2022-12-28T17:59:34.153Z,6.85
2022-12-28T18:02:05.300Z,7.40
2022-12-28T18:04:35.769Z,7.20
2022-12-28T18:07:04.814Z,6.80
2022-12-28T18:09:33.521Z,7.05
2022-12-28T18:12:02.416Z,6.72
2022-12-28T18:14:31.838Z,6.57
2022-12-28T18:17:00.618Z,6.97
2022-12-28T18:19:30.401Z,6.80
2022-12-28T18:22:00.425Z,7.15
2022-12-28T18:24:29.844Z,6.95
2022-12-28T18:26:58.717Z,7.35
2022-12-28T18:29:27.327Z,6.78
2022-12-28T18:31:56.344Z,7.55
2022-12-28T18:34:25.093Z,7.30
2022-12-28T18:36:53.781Z,6.78
2022-12-28T18:39:24.122Z,6.90
2022-12-28T18:41:53.081Z,6.85
2022-12-28T18:44:21.584Z,8.02
2022-12-28T18:46:50.517Z,6.55
2022-12-28T18:49:19.456Z,6.55
2022-12-28T18:51:48.289Z,7.60
2022-12-28T18:54:17.271Z,6.85
2022-12-28T18:56:47.427Z,7.40
2022-12-28T18:59:16.056Z,7.72
2022-12-28T19:04:37.226Z,7.07
2022-12-28T19:09:34.467Z,5.97
2022-12-28T19:12:05.307Z,6.05
2022-12-28T19:14:34.299Z,6.15
2022-12-28T19:17:02.987Z,6.40
2022-12-28T19:19:31.606Z,6.18
2022-12-28T19:22:00.408Z,6.05
2022-12-28T19:24:29.112Z,6.40
2022-12-28T19:26:57.810Z,6.20
2022-12-28T19:29:28.069Z,6.30
2022-12-28T19:31:56.857Z,5.00
2022-12-28T19:34:25.899Z,5.57
2022-12-28T19:36:54.838Z,5.40
2022-12-28T19:39:23.871Z,4.80
2022-12-28T19:41:52.999Z,5.20
2022-12-28T19:44:23.250Z,4.82
2022-12-28T19:46:54.328Z,5.18
2022-12-28T19:49:23.294Z,5.40
2022-12-28T19:51:52.296Z,5.47
2022-12-28T19:54:21.153Z,5.47
2022-12-28T19:56:50.108Z,5.57
2022-12-28T19:59:18.822Z,4.90
2022-12-28T20:01:47.524Z,5.25
2022-12-28T20:04:17.662Z,5.50
2022-12-28T20:06:46.743Z,5.10
2022-12-28T20:09:16.372Z,5.60
2022-12-28T20:12:02.141Z,5.22
2022-12-28T20:15:19.916Z,5.20
2022-12-28T20:17:51.360Z,5.10
2022-12-28T20:20:26.753Z,3.97
2022-12-28T20:22:56.307Z,5.53
2022-12-28T20:25:25.392Z,4.90
2022-12-28T20:27:54.589Z,5.13
2022-12-28T20:30:23.526Z,5.30
2022-12-28T20:32:52.659Z,5.25
2022-12-28T20:35:25.243Z,5.13
2022-12-28T20:37:54.874Z,5.20
2022-12-28T20:40:23.739Z,5.75
2022-12-28T20:43:10.713Z,5.95
2022-12-28T20:45:40.131Z,6.03
2022-12-28T20:48:11.020Z,5.28
2022-12-28T20:50:41.152Z,5.70
2022-12-28T20:53:09.996Z,5.57
2022-12-28T20:55:39.286Z,6.75
2022-12-28T20:58:08.226Z,5.53
2022-12-28T21:00:38.825Z,5.65
2022-12-28T21:03:07.893Z,5.75
2022-12-28T21:05:37.013Z,5.50
2022-12-28T21:08:07.253Z,5.45
2022-12-28T21:10:35.827Z,6.60
2022-12-28T21:13:04.582Z,5.28
2022-12-28T21:15:33.234Z,5.90
2022-12-28T21:18:02.998Z,5.70
2022-12-28T21:20:38.635Z,5.80
2022-12-28T21:23:09.488Z,5.68
2022-12-28T21:25:38.211Z,5.22
2022-12-28T21:28:07.339Z,5.25
2022-12-28T21:30:36.055Z,5.22
2022-12-28T21:33:05.547Z,5.22
2022-12-28T21:35:35.024Z,5.40
2022-12-28T21:38:05.506Z,5.60
2022-12-28T21:40:35.710Z,4.97
2022-12-28T21:43:04.317Z,5.28
2022-12-28T21:45:32.948Z,4.68
2022-12-28T21:48:01.983Z,5.00
2022-12-28T21:50:30.638Z,4.80
2022-12-28T21:52:59.368Z,5.10
2022-12-28T21:55:46.591Z,5.28
2022-12-28T21:58:16.592Z,5.85
2022-12-28T22:01:02.966Z,5.82
2022-12-28T22:03:48.937Z,5.00
2022-12-28T22:06:17.901Z,5.72
2022-12-28T22:09:03.994Z,6.85
2022-12-28T22:11:50.172Z,6.25
2022-12-28T22:14:20.244Z,5.93
2022-12-28T22:16:48.845Z,5.32
2022-12-28T22:19:17.708Z,5.47
2022-12-28T22:21:46.371Z,5.53
2022-12-28T22:24:14.981Z,5.68
2022-12-28T22:26:43.519Z,5.50
2022-12-28T22:29:12.820Z,6.05
2022-12-28T22:31:42.881Z,5.25
2022-12-28T22:34:11.582Z,5.70
2022-12-28T22:36:40.603Z,5.55
2022-12-28T22:39:09.333Z,5.65
2022-12-28T22:41:37.883Z,5.60
2022-12-28T22:44:06.922Z,5.20
2022-12-28T22:46:35.746Z,5.03
2022-12-28T22:49:05.883Z,5.32
2022-12-28T22:51:34.490Z,5.00
2022-12-28T22:54:03.604Z,5.35
2022-12-28T22:56:32.245Z,5.25
2022-12-28T22:59:04.796Z,4.90
2022-12-28T23:01:34.946Z,5.63
2022-12-28T23:04:03.773Z,5.07
2022-12-28T23:06:34.070Z,5.38
2022-12-28T23:09:02.931Z,5.50
2022-12-28T23:11:38.358Z,5.00
2022-12-28T23:14:27.223Z,5.82
2022-12-28T23:16:56.231Z,6.05
2022-12-28T23:19:42.608Z,5.70
2022-12-28T23:22:32.590Z,5.22
2022-12-28T23:25:18.686Z,5.07
2022-12-28T23:27:48.191Z,5.20
2022-12-28T23:30:19.210Z,5.45
2022-12-28T23:32:47.911Z,5.30
2022-12-28T23:35:17.860Z,6.45
2022-12-28T23:37:48.873Z,5.75
2022-12-28T23:40:19.468Z,5.75
2022-12-28T23:42:48.691Z,6.25
2022-12-28T23:45:19.014Z,5.97
2022-12-28T23:47:47.981Z,5.38
2022-12-28T23:50:18.092Z,5.40
2022-12-28T23:52:48.359Z,5.18
2022-12-28T23:55:17.207Z,5.90
2022-12-28T23:57:45.761Z,5.32
